Cokeville, WY (83114)

6:52 PM MST on November 28, 2014 (GMT -0700)
ITD Rocky Point ID US | Change Station
CLOSE
Current Station
Personal Weather Station
Location: Dingle, ID
Elevation: 6058 ft
Nearby Weather Stations

Elev 6058 ft 42.19 °N, 111.20 °W | Updated 44 minutes ago

Mostly Cloudy
Mostly Cloudy
40 °F
Feels Like 36 °F
N
6
Wind Variable Wind from East
Gusts 7.0 mph

Today
High -- | Low -- °F
--% Chance of Precip.
Yesterday
High -- | Low -- °F
Precip. -- in
7:30 AM 4:53 PM
Waxing Crescent, 46% visible
Pressure 29.81 in
Visibility 10.0 miles
Clouds Clear
Windchill 36 °F
Dew Point 22 °F
Humidity 48%
Rainfall -999.00 in
Snow Depth Not available.
UV 0 out of 12
Pollen .10 out of 12
Air Quality Not available.
Flu Activity Not available.
METAR KAFO 290135Z AUTO 16010KT 10SM CLR 08/M09 A2981 RMK AO2

More Conditions Fewer Conditions

Pressure 29.81 in
Visibility 10.0 miles
Clouds Clear
Windchill 36 °F
Dew Point 22 °F
Humidity 48%
Rainfall -999.00 in
Snow Depth Not available.
UV 0 out of 12
Pollen .10 out of 12
Air Quality Not available.
Flu Activity Not available.
METAR KAFO 290135Z AUTO 16010KT 10SM CLR 08/M09 A2981 RMK AO2

More Conditions Fewer Conditions

10-Day Weather Forecast

Almanac

Astronomy

Nov. 28, 2014 Rise Set
Actual Time
Civil Twilight
Nautical Twilight
Astronomical Twilight
Moon
Length of Visible Light
Length of Day
Tomorrow will be .
, % of the Moon is Illuminated

Today's Extremes

State Highs State Lows

Community

WunderPhotos

Upload Photos

1,774,369 photos uploaded!

WunderBlogs® & News

Nearby

Air Quality

  Air Quality AQ Index Pollutant
Not available.

Snow Depth

Station Depth Elevation

Earthquake Activity

City Distance Mag. Time & Date
Minimum magnitude displayed is 2.5.

Coastal Water Temperatures

Place Temperature

Nearby Weather Stations